sensor_id;sensor_type;location;lat;lon;timestamp;P1;durP1;ratioP1;P2;durP2;ratioP2
17141;SDS011;32805;53.556;9.944;2024-03-07T00:01:12;28.45;;;16.50;;
17141;SDS011;32805;53.556;9.944;2024-03-07T00:03:40;26.02;;;16.80;;
17141;SDS011;32805;53.556;9.944;2024-03-07T00:06:07;28.05;;;14.73;;
17141;SDS011;32805;53.556;9.944;2024-03-07T00:08:37;27.88;;;16.27;;
17141;SDS011;32805;53.556;9.944;2024-03-07T00:11:04;26.83;;;16.08;;
17141;SDS011;32805;53.556;9.944;2024-03-07T00:13:34;24.45;;;15.30;;
17141;SDS011;32805;53.556;9.944;2024-03-07T00:16:02;25.15;;;15.18;;
17141;SDS011;32805;53.556;9.944;2024-03-07T00:18:30;26.98;;;16.00;;
17141;SDS011;32805;53.556;9.944;2024-03-07T00:20:59;25.77;;;14.20;;
17141;SDS011;32805;53.556;9.944;2024-03-07T00:23:40;25.75;;;15.15;;
17141;SDS011;32805;53.556;9.944;2024-03-07T00:26:17;23.58;;;14.75;;
17141;SDS011;32805;53.556;9.944;2024-03-07T00:28:45;28.77;;;15.65;;
17141;SDS011;32805;53.556;9.944;2024-03-07T00:31:44;24.30;;;14.98;;
17141;SDS011;32805;53.556;9.944;2024-03-07T00:34:18;26.98;;;14.43;;
17141;SDS011;32805;53.556;9.944;2024-03-07T00:36:52;21.63;;;14.15;;
17141;SDS011;32805;53.556;9.944;2024-03-07T00:39:40;25.10;;;14.68;;
17141;SDS011;32805;53.556;9.944;2024-03-07T00:42:32;20.77;;;14.55;;
17141;SDS011;32805;53.556;9.944;2024-03-07T00:45:26;24.10;;;14.13;;
17141;SDS011;32805;53.556;9.944;2024-03-07T00:48:30;25.23;;;13.43;;
17141;SDS011;32805;53.556;9.944;2024-03-07T00:51:22;22.40;;;13.27;;
17141;SDS011;32805;53.556;9.944;2024-03-07T00:54:15;22.63;;;12.75;;
17141;SDS011;32805;53.556;9.944;2024-03-07T00:57:10;19.00;;;11.73;;
17141;SDS011;32805;53.556;9.944;2024-03-07T00:59:44;26.85;;;13.13;;
17141;SDS011;32805;53.556;9.944;2024-03-07T01:02:15;19.95;;;12.57;;
17141;SDS011;32805;53.556;9.944;2024-03-07T01:04:49;21.75;;;13.50;;
17141;SDS011;32805;53.556;9.944;2024-03-07T01:07:25;25.35;;;13.05;;
17141;SDS011;32805;53.556;9.944;2024-03-07T01:09:54;22.83;;;12.35;;
17141;SDS011;32805;53.556;9.944;2024-03-07T01:18:22;24.90;;;14.10;;
17141;SDS011;32805;53.556;9.944;2024-03-07T01:21:19;26.88;;;12.75;;
17141;SDS011;32805;53.556;9.944;2024-03-07T01:23:55;26.85;;;14.52;;
17141;SDS011;32805;53.556;9.944;2024-03-07T01:26:22;21.77;;;12.60;;
17141;SDS011;32805;53.556;9.944;2024-03-07T01:28:53;23.40;;;13.73;;
17141;SDS011;32805;53.556;9.944;2024-03-07T01:31:39;23.38;;;12.82;;
17141;SDS011;32805;53.556;9.944;2024-03-07T01:34:10;26.65;;;13.23;;
17141;SDS011;32805;53.556;9.944;2024-03-07T01:36:38;25.10;;;13.40;;
17141;SDS011;32805;53.556;9.944;2024-03-07T01:39:10;28.85;;;14.43;;
17141;SDS011;32805;53.556;9.944;2024-03-07T01:41:53;23.85;;;12.65;;
17141;SDS011;32805;53.556;9.944;2024-03-07T01:44:34;25.65;;;14.07;;
17141;SDS011;32805;53.556;9.944;2024-03-07T01:47:07;21.55;;;13.73;;
17141;SDS011;32805;53.556;9.944;2024-03-07T01:49:36;25.27;;;13.23;;
17141;SDS011;32805;53.556;9.944;2024-03-07T01:52:08;27.63;;;14.02;;
17141;SDS011;32805;53.556;9.944;2024-03-07T01:54:36;32.65;;;15.95;;
17141;SDS011;32805;53.556;9.944;2024-03-07T01:57:04;28.08;;;15.65;;
17141;SDS011;32805;53.556;9.944;2024-03-07T01:59:34;27.25;;;16.17;;
17141;SDS011;32805;53.556;9.944;2024-03-07T02:02:02;25.60;;;15.23;;
17141;SDS011;32805;53.556;9.944;2024-03-07T02:04:30;34.10;;;16.48;;
17141;SDS011;32805;53.556;9.944;2024-03-07T02:07:02;29.67;;;17.35;;
17141;SDS011;32805;53.556;9.944;2024-03-07T02:09:30;25.63;;;15.93;;
17141;SDS011;32805;53.556;9.944;2024-03-07T02:12:00;25.50;;;16.05;;
17141;SDS011;32805;53.556;9.944;2024-03-07T02:14:35;27.58;;;16.40;;
17141;SDS011;32805;53.556;9.944;2024-03-07T02:17:08;27.73;;;18.20;;
17141;SDS011;32805;53.556;9.944;2024-03-07T02:19:36;25.40;;;15.85;;
17141;SDS011;32805;53.556;9.944;2024-03-07T02:22:06;29.45;;;17.58;;
17141;SDS011;32805;53.556;9.944;2024-03-07T02:24:35;29.73;;;16.75;;
17141;SDS011;32805;53.556;9.944;2024-03-07T02:27:02;27.10;;;16.55;;
17141;SDS011;32805;53.556;9.944;2024-03-07T02:29:30;32.20;;;16.50;;
17141;SDS011;32805;53.556;9.944;2024-03-07T02:31:58;29.40;;;16.58;;
17141;SDS011;32805;53.556;9.944;2024-03-07T02:34:25;25.10;;;15.82;;
17141;SDS011;32805;53.556;9.944;2024-03-07T02:36:53;26.33;;;15.45;;
17141;SDS011;32805;53.556;9.944;2024-03-07T02:39:22;28.63;;;15.70;;
17141;SDS011;32805;53.556;9.944;2024-03-07T02:41:51;27.67;;;15.20;;
17141;SDS011;32805;53.556;9.944;2024-03-07T02:44:19;27.15;;;15.48;;
17141;SDS011;32805;53.556;9.944;2024-03-07T02:46:46;25.88;;;14.23;;
17141;SDS011;32805;53.556;9.944;2024-03-07T02:49:14;25.13;;;15.20;;
17141;SDS011;32805;53.556;9.944;2024-03-07T02:51:41;23.25;;;14.00;;
17141;SDS011;32805;53.556;9.944;2024-03-07T02:54:09;25.65;;;15.07;;
17141;SDS011;32805;53.556;9.944;2024-03-07T02:56:38;26.08;;;14.43;;
17141;SDS011;32805;53.556;9.944;2024-03-07T02:59:05;24.00;;;13.77;;
17141;SDS011;32805;53.556;9.944;2024-03-07T03:01:33;20.98;;;13.82;;
17141;SDS011;32805;53.556;9.944;2024-03-07T03:04:01;23.50;;;12.35;;
17141;SDS011;32805;53.556;9.944;2024-03-07T03:06:29;21.60;;;13.52;;
17141;SDS011;32805;53.556;9.944;2024-03-07T03:08:57;22.20;;;13.18;;
17141;SDS011;32805;53.556;9.944;2024-03-07T03:11:25;19.65;;;12.77;;
17141;SDS011;32805;53.556;9.944;2024-03-07T03:13:55;21.25;;;12.15;;
17141;SDS011;32805;53.556;9.944;2024-03-07T03:16:25;23.15;;;13.95;;
17141;SDS011;32805;53.556;9.944;2024-03-07T03:19:12;25.55;;;13.73;;
17141;SDS011;32805;53.556;9.944;2024-03-07T03:21:41;22.15;;;13.02;;
17141;SDS011;32805;53.556;9.944;2024-03-07T03:24:09;22.13;;;12.57;;
17141;SDS011;32805;53.556;9.944;2024-03-07T03:26:40;22.48;;;12.65;;
17141;SDS011;32805;53.556;9.944;2024-03-07T03:29:13;21.63;;;12.20;;
17141;SDS011;32805;53.556;9.944;2024-03-07T03:31:46;17.88;;;12.48;;
17141;SDS011;32805;53.556;9.944;2024-03-07T03:34:14;19.75;;;12.32;;
17141;SDS011;32805;53.556;9.944;2024-03-07T03:36:44;21.13;;;12.10;;
17141;SDS011;32805;53.556;9.944;2024-03-07T03:39:12;19.70;;;12.00;;
17141;SDS011;32805;53.556;9.944;2024-03-07T03:41:40;19.17;;;12.40;;
17141;SDS011;32805;53.556;9.944;2024-03-07T03:44:07;17.10;;;11.13;;
17141;SDS011;32805;53.556;9.944;2024-03-07T03:46:39;22.40;;;10.85;;
17141;SDS011;32805;53.556;9.944;2024-03-07T03:49:06;19.30;;;11.55;;
17141;SDS011;32805;53.556;9.944;2024-03-07T03:51:36;18.00;;;11.00;;
17141;SDS011;32805;53.556;9.944;2024-03-07T03:54:03;21.13;;;12.27;;
17141;SDS011;32805;53.556;9.944;2024-03-07T03:56:35;20.13;;;10.68;;
17141;SDS011;32805;53.556;9.944;2024-03-07T03:59:02;17.98;;;11.85;;
17141;SDS011;32805;53.556;9.944;2024-03-07T04:01:31;18.90;;;11.30;;
17141;SDS011;32805;53.556;9.944;2024-03-07T04:03:59;19.23;;;10.95;;
17141;SDS011;32805;53.556;9.944;2024-03-07T04:06:29;16.73;;;10.45;;
17141;SDS011;32805;53.556;9.944;2024-03-07T04:08:57;18.42;;;11.25;;
17141;SDS011;32805;53.556;9.944;2024-03-07T04:11:25;19.08;;;10.55;;
17141;SDS011;32805;53.556;9.944;2024-03-07T04:13:54;25.50;;;11.82;;
17141;SDS011;32805;53.556;9.944;2024-03-07T04:16:22;18.10;;;11.45;;
17141;SDS011;32805;53.556;9.944;2024-03-07T04:18:49;17.20;;;11.27;;
17141;SDS011;32805;53.556;9.944;2024-03-07T04:21:18;21.23;;;12.45;;
17141;SDS011;32805;53.556;9.944;2024-03-07T04:23:46;20.88;;;11.75;;
17141;SDS011;32805;53.556;9.944;2024-03-07T04:26:19;21.35;;;11.98;;
17141;SDS011;32805;53.556;9.944;2024-03-07T04:28:49;16.73;;;11.32;;
17141;SDS011;32805;53.556;9.944;2024-03-07T04:31:22;20.05;;;11.95;;
17141;SDS011;32805;53.556;9.944;2024-03-07T04:33:50;19.13;;;11.82;;
17141;SDS011;32805;53.556;9.944;2024-03-07T04:36:19;16.02;;;10.65;;
17141;SDS011;32805;53.556;9.944;2024-03-07T04:38:47;17.85;;;11.10;;
17141;SDS011;32805;53.556;9.944;2024-03-07T04:41:14;16.42;;;10.93;;
17141;SDS011;32805;53.556;9.944;2024-03-07T04:43:42;18.38;;;12.38;;
17141;SDS011;32805;53.556;9.944;2024-03-07T04:46:09;17.25;;;12.20;;
17141;SDS011;32805;53.556;9.944;2024-03-07T04:48:37;24.08;;;12.20;;
17141;SDS011;32805;53.556;9.944;2024-03-07T04:51:05;21.35;;;11.68;;
17141;SDS011;32805;53.556;9.944;2024-03-07T04:53:35;21.95;;;15.50;;
17141;SDS011;32805;53.556;9.944;2024-03-07T04:59:44;20.23;;;12.10;;
17141;SDS011;32805;53.556;9.944;2024-03-07T05:02:46;17.85;;;12.25;;
17141;SDS011;32805;53.556;9.944;2024-03-07T05:05:21;21.95;;;12.73;;
17141;SDS011;32805;53.556;9.944;2024-03-07T05:08:03;21.30;;;11.90;;
17141;SDS011;32805;53.556;9.944;2024-03-07T05:11:07;22.60;;;12.90;;
17141;SDS011;32805;53.556;9.944;2024-03-07T05:17:50;18.95;;;12.23;;
17141;SDS011;32805;53.556;9.944;2024-03-07T05:24:35;21.65;;;12.15;;
17141;SDS011;32805;53.556;9.944;2024-03-07T05:27:05;17.27;;;12.00;;
17141;SDS011;32805;53.556;9.944;2024-03-07T05:32:50;19.77;;;12.38;;
17141;SDS011;32805;53.556;9.944;2024-03-07T05:35:25;18.90;;;11.85;;
17141;SDS011;32805;53.556;9.944;2024-03-07T05:38:03;20.05;;;12.23;;
17141;SDS011;32805;53.556;9.944;2024-03-07T05:40:31;14.35;;;9.93;;
17141;SDS011;32805;53.556;9.944;2024-03-07T05:43:00;17.75;;;11.52;;
17141;SDS011;32805;53.556;9.944;2024-03-07T05:45:28;17.58;;;11.85;;
17141;SDS011;32805;53.556;9.944;2024-03-07T05:47:55;17.17;;;11.05;;
17141;SDS011;32805;53.556;9.944;2024-03-07T05:50:26;16.63;;;10.60;;
17141;SDS011;32805;53.556;9.944;2024-03-07T05:52:54;15.02;;;10.18;;
17141;SDS011;32805;53.556;9.944;2024-03-07T05:55:22;14.80;;;10.55;;
17141;SDS011;32805;53.556;9.944;2024-03-07T05:57:49;14.75;;;10.10;;
17141;SDS011;32805;53.556;9.944;2024-03-07T06:00:18;15.57;;;10.98;;
17141;SDS011;32805;53.556;9.944;2024-03-07T06:02:54;15.77;;;10.00;;
17141;SDS011;32805;53.556;9.944;2024-03-07T06:05:25;20.38;;;12.13;;
17141;SDS011;32805;53.556;9.944;2024-03-07T06:07:53;16.63;;;10.48;;
17141;SDS011;32805;53.556;9.944;2024-03-07T06:10:23;14.45;;;10.55;;
17141;SDS011;32805;53.556;9.944;2024-03-07T06:12:51;15.43;;;11.00;;
17141;SDS011;32805;53.556;9.944;2024-03-07T06:15:39;18.63;;;11.15;;
17141;SDS011;32805;53.556;9.944;2024-03-07T06:18:27;17.48;;;10.40;;
17141;SDS011;32805;53.556;9.944;2024-03-07T06:21:17;19.98;;;11.27;;
17141;SDS011;32805;53.556;9.944;2024-03-07T06:23:48;16.33;;;10.45;;
17141;SDS011;32805;53.556;9.944;2024-03-07T06:26:22;15.95;;;10.88;;
17141;SDS011;32805;53.556;9.944;2024-03-07T06:29:04;14.73;;;10.15;;
17141;SDS011;32805;53.556;9.944;2024-03-07T06:31:36;15.52;;;10.15;;
17141;SDS011;32805;53.556;9.944;2024-03-07T06:34:05;16.92;;;10.75;;
17141;SDS011;32805;53.556;9.944;2024-03-07T06:36:35;14.32;;;10.65;;
17141;SDS011;32805;53.556;9.944;2024-03-07T06:39:06;15.20;;;11.10;;
17141;SDS011;32805;53.556;9.944;2024-03-07T06:41:39;15.35;;;10.50;;
17141;SDS011;32805;53.556;9.944;2024-03-07T06:44:07;18.63;;;10.73;;
17141;SDS011;32805;53.556;9.944;2024-03-07T06:46:38;20.27;;;12.60;;
17141;SDS011;32805;53.556;9.944;2024-03-07T06:49:05;18.75;;;11.50;;
17141;SDS011;32805;53.556;9.944;2024-03-07T06:51:37;20.83;;;11.30;;
17141;SDS011;32805;53.556;9.944;2024-03-07T06:54:06;14.95;;;10.88;;
17141;SDS011;32805;53.556;9.944;2024-03-07T06:56:36;14.52;;;10.18;;
17141;SDS011;32805;53.556;9.944;2024-03-07T06:59:06;15.95;;;10.88;;
17141;SDS011;32805;53.556;9.944;2024-03-07T07:01:33;13.93;;;9.80;;
17141;SDS011;32805;53.556;9.944;2024-03-07T07:04:02;15.63;;;9.07;;
17141;SDS011;32805;53.556;9.944;2024-03-07T07:06:30;17.27;;;10.43;;
17141;SDS011;32805;53.556;9.944;2024-03-07T07:09:00;17.23;;;9.95;;
17141;SDS011;32805;53.556;9.944;2024-03-07T07:11:30;12.60;;;9.85;;
17141;SDS011;32805;53.556;9.944;2024-03-07T07:14:00;13.13;;;9.38;;
17141;SDS011;32805;53.556;9.944;2024-03-07T07:16:37;14.95;;;10.10;;
17141;SDS011;32805;53.556;9.944;2024-03-07T07:19:23;15.20;;;10.05;;
17141;SDS011;32805;53.556;9.944;2024-03-07T07:21:51;14.50;;;9.75;;
17141;SDS011;32805;53.556;9.944;2024-03-07T07:24:20;14.30;;;10.45;;
17141;SDS011;32805;53.556;9.944;2024-03-07T07:26:50;14.55;;;10.40;;
17141;SDS011;32805;53.556;9.944;2024-03-07T07:29:19;15.98;;;10.70;;
17141;SDS011;32805;53.556;9.944;2024-03-07T07:31:58;14.60;;;10.05;;
17141;SDS011;32805;53.556;9.944;2024-03-07T07:34:28;14.75;;;10.18;;
17141;SDS011;32805;53.556;9.944;2024-03-07T07:36:59;14.57;;;9.85;;
17141;SDS011;32805;53.556;9.944;2024-03-07T07:39:26;15.43;;;9.90;;
17141;SDS011;32805;53.556;9.944;2024-03-07T07:41:57;15.02;;;10.13;;
17141;SDS011;32805;53.556;9.944;2024-03-07T07:44:32;11.93;;;9.18;;
17141;SDS011;32805;53.556;9.944;2024-03-07T07:47:06;29.40;;;15.75;;
17141;SDS011;32805;53.556;9.944;2024-03-07T07:49:36;13.10;;;9.27;;
17141;SDS011;32805;53.556;9.944;2024-03-07T07:52:05;16.58;;;9.15;;
17141;SDS011;32805;53.556;9.944;2024-03-07T07:54:34;12.88;;;9.10;;
17141;SDS011;32805;53.556;9.944;2024-03-07T07:57:02;13.57;;;9.25;;
17141;SDS011;32805;53.556;9.944;2024-03-07T07:59:29;12.25;;;9.10;;
17141;SDS011;32805;53.556;9.944;2024-03-07T08:01:59;12.88;;;9.20;;
17141;SDS011;32805;53.556;9.944;2024-03-07T08:04:27;13.60;;;8.98;;
17141;SDS011;32805;53.556;9.944;2024-03-07T08:07:00;10.10;;;8.57;;
17141;SDS011;32805;53.556;9.944;2024-03-07T08:09:28;14.02;;;9.38;;
17141;SDS011;32805;53.556;9.944;2024-03-07T08:11:56;14.40;;;9.50;;
17141;SDS011;32805;53.556;9.944;2024-03-07T08:14:33;14.38;;;10.15;;
17141;SDS011;32805;53.556;9.944;2024-03-07T08:17:01;13.23;;;9.27;;
17141;SDS011;32805;53.556;9.944;2024-03-07T08:19:30;14.35;;;9.65;;
17141;SDS011;32805;53.556;9.944;2024-03-07T08:22:04;12.75;;;8.88;;
17141;SDS011;32805;53.556;9.944;2024-03-07T08:24:32;16.13;;;10.50;;
17141;SDS011;32805;53.556;9.944;2024-03-07T08:26:59;14.13;;;9.60;;
17141;SDS011;32805;53.556;9.944;2024-03-07T08:29:29;15.68;;;9.38;;
17141;SDS011;32805;53.556;9.944;2024-03-07T08:31:56;16.65;;;9.95;;
17141;SDS011;32805;53.556;9.944;2024-03-07T08:34:24;15.55;;;9.85;;
17141;SDS011;32805;53.556;9.944;2024-03-07T08:36:56;14.10;;;9.40;;
17141;SDS011;32805;53.556;9.944;2024-03-07T08:39:28;12.40;;;9.40;;
17141;SDS011;32805;53.556;9.944;2024-03-07T08:41:57;10.73;;;8.93;;
17141;SDS011;32805;53.556;9.944;2024-03-07T08:44:25;14.55;;;9.68;;
17141;SDS011;32805;53.556;9.944;2024-03-07T08:46:53;15.48;;;10.00;;
17141;SDS011;32805;53.556;9.944;2024-03-07T08:49:21;14.65;;;9.48;;
17141;SDS011;32805;53.556;9.944;2024-03-07T08:51:49;14.85;;;10.38;;
17141;SDS011;32805;53.556;9.944;2024-03-07T08:54:19;13.98;;;9.85;;
17141;SDS011;32805;53.556;9.944;2024-03-07T08:56:48;16.85;;;10.60;;
17141;SDS011;32805;53.556;9.944;2024-03-07T08:59:17;10.32;;;8.73;;
17141;SDS011;32805;53.556;9.944;2024-03-07T09:01:45;12.95;;;8.93;;
17141;SDS011;32805;53.556;9.944;2024-03-07T09:04:13;19.15;;;8.70;;
17141;SDS011;32805;53.556;9.944;2024-03-07T09:06:44;15.98;;;9.00;;
17141;SDS011;32805;53.556;9.944;2024-03-07T09:09:15;12.43;;;8.57;;
17141;SDS011;32805;53.556;9.944;2024-03-07T09:11:48;11.38;;;8.15;;
17141;SDS011;32805;53.556;9.944;2024-03-07T09:14:16;13.63;;;8.68;;
17141;SDS011;32805;53.556;9.944;2024-03-07T09:16:43;9.57;;;8.45;;
17141;SDS011;32805;53.556;9.944;2024-03-07T09:19:14;10.82;;;7.97;;
17141;SDS011;32805;53.556;9.944;2024-03-07T09:21:46;13.60;;;8.50;;
17141;SDS011;32805;53.556;9.944;2024-03-07T09:24:15;11.95;;;8.63;;
17141;SDS011;32805;53.556;9.944;2024-03-07T09:26:43;12.73;;;8.18;;
17141;SDS011;32805;53.556;9.944;2024-03-07T09:29:12;10.18;;;8.18;;
17141;SDS011;32805;53.556;9.944;2024-03-07T09:31:40;13.40;;;9.50;;
17141;SDS011;32805;53.556;9.944;2024-03-07T09:34:08;13.38;;;9.70;;
17141;SDS011;32805;53.556;9.944;2024-03-07T09:36:35;16.15;;;9.43;;
17141;SDS011;32805;53.556;9.944;2024-03-07T09:39:03;11.93;;;8.77;;
17141;SDS011;32805;53.556;9.944;2024-03-07T09:41:33;16.25;;;8.93;;
17141;SDS011;32805;53.556;9.944;2024-03-07T09:44:01;13.20;;;8.95;;
17141;SDS011;32805;53.556;9.944;2024-03-07T09:46:30;13.07;;;8.93;;
17141;SDS011;32805;53.556;9.944;2024-03-07T09:48:58;16.52;;;9.93;;
17141;SDS011;32805;53.556;9.944;2024-03-07T09:51:29;15.43;;;10.40;;
17141;SDS011;32805;53.556;9.944;2024-03-07T09:53:56;18.45;;;10.18;;
17141;SDS011;32805;53.556;9.944;2024-03-07T09:56:28;14.30;;;9.98;;
17141;SDS011;32805;53.556;9.944;2024-03-07T09:58:58;15.65;;;9.77;;
17141;SDS011;32805;53.556;9.944;2024-03-07T10:01:32;15.50;;;10.10;;
17141;SDS011;32805;53.556;9.944;2024-03-07T10:04:00;18.70;;;11.25;;
17141;SDS011;32805;53.556;9.944;2024-03-07T10:06:37;15.60;;;9.65;;
17141;SDS011;32805;53.556;9.944;2024-03-07T10:09:04;16.23;;;10.02;;
17141;SDS011;32805;53.556;9.944;2024-03-07T10:11:33;15.52;;;10.27;;
17141;SDS011;32805;53.556;9.944;2024-03-07T10:14:01;19.33;;;11.13;;
17141;SDS011;32805;53.556;9.944;2024-03-07T10:16:32;18.58;;;10.55;;
17141;SDS011;32805;53.556;9.944;2024-03-07T10:19:00;19.27;;;10.65;;
17141;SDS011;32805;53.556;9.944;2024-03-07T10:21:34;17.30;;;11.10;;
17141;SDS011;32805;53.556;9.944;2024-03-07T10:24:04;16.00;;;10.65;;
17141;SDS011;32805;53.556;9.944;2024-03-07T10:26:35;15.25;;;10.63;;
17141;SDS011;32805;53.556;9.944;2024-03-07T10:29:04;16.55;;;10.57;;
17141;SDS011;32805;53.556;9.944;2024-03-07T10:31:33;19.52;;;11.93;;
17141;SDS011;32805;53.556;9.944;2024-03-07T10:34:04;17.70;;;11.48;;
17141;SDS011;32805;53.556;9.944;2024-03-07T10:36:34;16.60;;;10.43;;
17141;SDS011;32805;53.556;9.944;2024-03-07T10:39:02;17.95;;;11.68;;
17141;SDS011;32805;53.556;9.944;2024-03-07T10:41:40;15.73;;;10.82;;
17141;SDS011;32805;53.556;9.944;2024-03-07T10:44:15;16.80;;;10.73;;
17141;SDS011;32805;53.556;9.944;2024-03-07T10:46:49;18.45;;;11.43;;
17141;SDS011;32805;53.556;9.944;2024-03-07T10:49:19;15.85;;;11.43;;
17141;SDS011;32805;53.556;9.944;2024-03-07T10:51:54;20.80;;;12.05;;
17141;SDS011;32805;53.556;9.944;2024-03-07T10:54:28;20.25;;;12.23;;
17141;SDS011;32805;53.556;9.944;2024-03-07T10:57:02;17.90;;;12.20;;
17141;SDS011;32805;53.556;9.944;2024-03-07T10:59:35;18.38;;;11.95;;
17141;SDS011;32805;53.556;9.944;2024-03-07T11:02:09;16.52;;;11.00;;
17141;SDS011;32805;53.556;9.944;2024-03-07T11:04:42;17.50;;;11.27;;
17141;SDS011;32805;53.556;9.944;2024-03-07T11:07:11;20.38;;;12.88;;
17141;SDS011;32805;53.556;9.944;2024-03-07T11:09:38;16.60;;;11.65;;
17141;SDS011;32805;53.556;9.944;2024-03-07T11:12:08;16.65;;;11.98;;
17141;SDS011;32805;53.556;9.944;2024-03-07T11:14:38;17.90;;;11.63;;
17141;SDS011;32805;53.556;9.944;2024-03-07T11:17:08;15.50;;;10.50;;
17141;SDS011;32805;53.556;9.944;2024-03-07T11:19:35;19.85;;;10.93;;
17141;SDS011;32805;53.556;9.944;2024-03-07T11:22:05;15.93;;;10.07;;
17141;SDS011;32805;53.556;9.944;2024-03-07T11:24:41;19.58;;;10.57;;
17141;SDS011;32805;53.556;9.944;2024-03-07T11:27:10;18.17;;;11.45;;
17141;SDS011;32805;53.556;9.944;2024-03-07T11:29:43;17.48;;;10.65;;
17141;SDS011;32805;53.556;9.944;2024-03-07T11:32:16;18.77;;;11.77;;
17141;SDS011;32805;53.556;9.944;2024-03-07T11:34:44;15.63;;;10.27;;
17141;SDS011;32805;53.556;9.944;2024-03-07T11:37:17;16.35;;;11.23;;
17141;SDS011;32805;53.556;9.944;2024-03-07T11:39:44;18.02;;;11.40;;
17141;SDS011;32805;53.556;9.944;2024-03-07T11:42:20;19.58;;;10.98;;
17141;SDS011;32805;53.556;9.944;2024-03-07T11:44:51;19.55;;;12.25;;
17141;SDS011;32805;53.556;9.944;2024-03-07T11:47:34;17.23;;;11.27;;
17141;SDS011;32805;53.556;9.944;2024-03-07T11:50:02;16.02;;;10.90;;
17141;SDS011;32805;53.556;9.944;2024-03-07T11:52:34;17.08;;;10.85;;
17141;SDS011;32805;53.556;9.944;2024-03-07T11:55:03;17.42;;;10.90;;
17141;SDS011;32805;53.556;9.944;2024-03-07T11:57:31;20.25;;;12.50;;
17141;SDS011;32805;53.556;9.944;2024-03-07T12:00:00;16.15;;;11.50;;
17141;SDS011;32805;53.556;9.944;2024-03-07T12:02:42;20.10;;;11.65;;
17141;SDS011;32805;53.556;9.944;2024-03-07T12:05:11;18.85;;;11.70;;
17141;SDS011;32805;53.556;9.944;2024-03-07T12:07:42;19.02;;;12.50;;
17141;SDS011;32805;53.556;9.944;2024-03-07T12:10:10;19.95;;;12.38;;
17141;SDS011;32805;53.556;9.944;2024-03-07T12:12:38;19.27;;;12.00;;
17141;SDS011;32805;53.556;9.944;2024-03-07T12:15:06;19.27;;;12.98;;
17141;SDS011;32805;53.556;9.944;2024-03-07T12:17:43;22.48;;;11.80;;
17141;SDS011;32805;53.556;9.944;2024-03-07T12:20:11;20.15;;;12.20;;
17141;SDS011;32805;53.556;9.944;2024-03-07T12:22:55;19.50;;;12.43;;
17141;SDS011;32805;53.556;9.944;2024-03-07T12:25:23;18.13;;;11.68;;
17141;SDS011;32805;53.556;9.944;2024-03-07T12:28:02;17.90;;;11.77;;
17141;SDS011;32805;53.556;9.944;2024-03-07T12:30:32;21.10;;;12.73;;
17141;SDS011;32805;53.556;9.944;2024-03-07T12:33:02;20.15;;;12.32;;
17141;SDS011;32805;53.556;9.944;2024-03-07T12:35:33;19.98;;;11.82;;
17141;SDS011;32805;53.556;9.944;2024-03-07T12:38:01;20.42;;;12.35;;
17141;SDS011;32805;53.556;9.944;2024-03-07T12:40:30;21.00;;;11.85;;
17141;SDS011;32805;53.556;9.944;2024-03-07T12:43:00;17.98;;;11.88;;
17141;SDS011;32805;53.556;9.944;2024-03-07T12:45:29;21.63;;;12.40;;
17141;SDS011;32805;53.556;9.944;2024-03-07T12:48:01;18.10;;;12.18;;
17141;SDS011;32805;53.556;9.944;2024-03-07T12:50:33;24.25;;;12.82;;
17141;SDS011;32805;53.556;9.944;2024-03-07T12:53:03;19.02;;;13.05;;
17141;SDS011;32805;53.556;9.944;2024-03-07T12:55:32;22.63;;;12.35;;
17141;SDS011;32805;53.556;9.944;2024-03-07T12:58:01;22.48;;;13.25;;
17141;SDS011;32805;53.556;9.944;2024-03-07T13:00:31;20.35;;;13.02;;
17141;SDS011;32805;53.556;9.944;2024-03-07T13:02:58;19.35;;;12.57;;
17141;SDS011;32805;53.556;9.944;2024-03-07T13:05:26;20.95;;;13.43;;
17141;SDS011;32805;53.556;9.944;2024-03-07T13:07:55;20.50;;;13.15;;
17141;SDS011;32805;53.556;9.944;2024-03-07T13:10:22;22.58;;;13.55;;
17141;SDS011;32805;53.556;9.944;2024-03-07T13:12:50;22.27;;;13.95;;
17141;SDS011;32805;53.556;9.944;2024-03-07T13:15:18;22.10;;;13.65;;
17141;SDS011;32805;53.556;9.944;2024-03-07T13:17:51;22.77;;;13.93;;
17141;SDS011;32805;53.556;9.944;2024-03-07T13:20:21;21.67;;;12.77;;
17141;SDS011;32805;53.556;9.944;2024-03-07T13:22:52;22.65;;;14.23;;
17141;SDS011;32805;53.556;9.944;2024-03-07T13:25:23;21.95;;;13.27;;
17141;SDS011;32805;53.556;9.944;2024-03-07T13:27:52;21.42;;;14.10;;
17141;SDS011;32805;53.556;9.944;2024-03-07T13:30:25;19.67;;;12.57;;
17141;SDS011;32805;53.556;9.944;2024-03-07T13:32:54;19.05;;;13.23;;
17141;SDS011;32805;53.556;9.944;2024-03-07T13:35:22;18.45;;;12.75;;
17141;SDS011;32805;53.556;9.944;2024-03-07T13:37:52;21.02;;;13.52;;
17141;SDS011;32805;53.556;9.944;2024-03-07T13:40:27;19.95;;;13.32;;
17141;SDS011;32805;53.556;9.944;2024-03-07T13:42:57;18.70;;;13.40;;
17141;SDS011;32805;53.556;9.944;2024-03-07T13:45:26;21.45;;;13.85;;
17141;SDS011;32805;53.556;9.944;2024-03-07T13:47:54;20.50;;;13.05;;
17141;SDS011;32805;53.556;9.944;2024-03-07T13:50:23;20.20;;;13.70;;
17141;SDS011;32805;53.556;9.944;2024-03-07T13:53:11;21.02;;;14.20;;
17141;SDS011;32805;53.556;9.944;2024-03-07T13:55:46;21.50;;;13.77;;
17141;SDS011;32805;53.556;9.944;2024-03-07T13:58:35;23.67;;;12.93;;
17141;SDS011;32805;53.556;9.944;2024-03-07T14:01:14;22.95;;;14.00;;
17141;SDS011;32805;53.556;9.944;2024-03-07T14:03:57;19.08;;;13.02;;
17141;SDS011;32805;53.556;9.944;2024-03-07T14:06:32;18.05;;;13.13;;
17141;SDS011;32805;53.556;9.944;2024-03-07T14:09:08;21.65;;;13.45;;
17141;SDS011;32805;53.556;9.944;2024-03-07T14:11:49;21.67;;;14.30;;
17141;SDS011;32805;53.556;9.944;2024-03-07T14:14:30;19.75;;;13.93;;
17141;SDS011;32805;53.556;9.944;2024-03-07T14:17:32;19.30;;;13.32;;
17141;SDS011;32805;53.556;9.944;2024-03-07T14:23:09;20.90;;;13.68;;
17141;SDS011;32805;53.556;9.944;2024-03-07T14:25:43;19.20;;;12.73;;
17141;SDS011;32805;53.556;9.944;2024-03-07T14:28:19;26.10;;;16.25;;
17141;SDS011;32805;53.556;9.944;2024-03-07T14:30:58;21.27;;;13.23;;
17141;SDS011;32805;53.556;9.944;2024-03-07T14:33:26;22.35;;;13.75;;
17141;SDS011;32805;53.556;9.944;2024-03-07T14:35:58;19.38;;;13.70;;
17141;SDS011;32805;53.556;9.944;2024-03-07T14:38:27;20.02;;;12.93;;
17141;SDS011;32805;53.556;9.944;2024-03-07T14:40:56;20.55;;;13.15;;
17141;SDS011;32805;53.556;9.944;2024-03-07T14:43:25;18.40;;;12.85;;
17141;SDS011;32805;53.556;9.944;2024-03-07T14:45:54;22.45;;;13.75;;
17141;SDS011;32805;53.556;9.944;2024-03-07T14:48:22;19.95;;;13.95;;
17141;SDS011;32805;53.556;9.944;2024-03-07T14:50:50;18.52;;;12.45;;
17141;SDS011;32805;53.556;9.944;2024-03-07T14:53:18;21.85;;;14.38;;
17141;SDS011;32805;53.556;9.944;2024-03-07T14:55:48;21.50;;;14.40;;
17141;SDS011;32805;53.556;9.944;2024-03-07T14:58:19;21.08;;;14.32;;
17141;SDS011;32805;53.556;9.944;2024-03-07T15:00:49;19.63;;;13.75;;
17141;SDS011;32805;53.556;9.944;2024-03-07T15:03:24;21.15;;;13.80;;
17141;SDS011;32805;53.556;9.944;2024-03-07T15:05:54;22.20;;;14.00;;
17141;SDS011;32805;53.556;9.944;2024-03-07T15:08:22;22.13;;;13.43;;
17141;SDS011;32805;53.556;9.944;2024-03-07T15:10:52;22.67;;;12.90;;
17141;SDS011;32805;53.556;9.944;2024-03-07T15:13:21;21.65;;;13.25;;